Time;durP1;ratioP1;P1;durP2;ratioP2;P2;SDS_P1;SDS_P2;PMS_P1;PMS_P2;Temp;Humidity;BMP_temperature;BMP_pressure;BME280_temperature;BME280_humidity;BME280_pressure;Samples;Min_cycle;Max_cycle;Signal;HPM_P1;HPM_P2
2021/08/23 00:02:50;;;;;;;10.38;6.63;;;;;;;;;;6273491;28;20131;-70
2021/08/23 00:05:52;;;;;;;10.02;5.93;;;;;;;;;;6274701;28;20131;-71
2021/08/23 00:08:53;;;;;;;9.23;6.18;;;;;;;;;;6287633;28;20094;-70
2021/08/23 00:11:55;;;;;;;7.07;5.68;;;;;;;;;;6282101;28;20044;-73
2021/08/23 00:14:58;;;;;;;9.70;5.30;;;;;;;;;;6282038;28;20037;-71
2021/08/23 00:18:00;;;;;;;9.20;5.97;;;;;;;;;;6275417;28;20071;-70
2021/08/23 00:21:02;;;;;;;12.48;5.95;;;;;;;;;;6273812;28;20060;-73
2021/08/23 00:24:06;;;;;;;10.05;5.50;;;;;;;;;;6273134;28;20056;-71
2021/08/23 00:27:08;;;;;;;8.68;5.80;;;;;;;;;;6275903;28;20047;-70
2021/08/23 00:30:14;;;;;;;7.90;5.80;;;;;;;;;;6288163;28;20479;-78
2021/08/23 00:33:16;;;;;;;11.35;6.07;;;;;;;;;;6273009;28;20086;-72
2021/08/23 00:36:18;;;;;;;9.20;5.20;;;;;;;;;;6276364;28;20159;-75
2021/08/23 00:39:19;;;;;;;10.63;6.22;;;;;;;;;;6281144;28;20485;-70
2021/08/23 00:42:21;;;;;;;9.95;6.18;;;;;;;;;;6276406;28;20141;-72
2021/08/23 00:45:24;;;;;;;9.13;5.70;;;;;;;;;;6278321;28;20129;-70
2021/08/23 00:48:26;;;;;;;9.55;6.07;;;;;;;;;;6277306;28;20554;-70
2021/08/23 00:51:27;;;;;;;9.43;5.80;;;;;;;;;;6279231;28;20045;-72
2021/08/23 00:54:29;;;;;;;9.63;6.28;;;;;;;;;;6279003;28;20053;-70
2021/08/23 00:57:31;;;;;;;8.88;6.68;;;;;;;;;;6276255;28;20417;-72
2021/08/23 01:00:34;;;;;;;8.45;5.78;;;;;;;;;;6275364;28;20097;-75
2021/08/23 01:03:39;;;;;;;8.25;6.50;;;;;;;;;;6274828;28;20127;-70
2021/08/23 01:06:40;;;;;;;8.52;6.00;;;;;;;;;;6275272;28;20067;-75
2021/08/23 01:09:48;;;;;;;7.90;5.63;;;;;;;;;;6283038;28;20752;-70
2021/08/23 01:12:50;;;;;;;8.18;6.47;;;;;;;;;;6275597;28;20044;-70
2021/08/23 01:15:54;;;;;;;7.47;5.43;;;;;;;;;;6273902;28;20305;-71
2021/08/23 01:18:55;;;;;;;;;;;;;;;;;;6273934;28;20069;-70
2021/08/23 01:21:58;;;;;;;8.35;5.50;;;;;;;;;;6277838;28;20459;-72
2021/08/23 01:25:01;;;;;;;6.57;5.35;;;;;;;;;;6287833;28;20536;-71
2021/08/23 01:28:10;;;;;;;7.03;6.00;;;;;;;;;;6283355;28;20123;-70
2021/08/23 01:31:25;;;;;;;11.50;6.07;;;;;;;;;;6278806;28;20170;-70
2021/08/23 01:34:28;;;;;;;9.73;5.40;;;;;;;;;;6278979;28;20052;-73
2021/08/23 01:37:30;;;;;;;6.72;5.63;;;;;;;;;;6275296;28;20146;-71
2021/08/23 01:40:32;;;;;;;9.50;5.67;;;;;;;;;;6272596;28;20205;-75
2021/08/23 01:43:34;;;;;;;7.47;6.03;;;;;;;;;;6279619;28;20040;-70
2021/08/23 01:46:36;;;;;;;11.55;6.03;;;;;;;;;;6272975;28;20135;-71
2021/08/23 01:49:39;;;;;;;9.35;5.78;;;;;;;;;;6281749;28;20044;-77
2021/08/23 01:52:40;;;;;;;7.53;5.28;;;;;;;;;;6275700;28;20724;-70
2021/08/23 01:55:42;;;;;;;7.80;5.55;;;;;;;;;;6273336;28;20123;-70
2021/08/23 01:58:44;;;;;;;10.52;5.82;;;;;;;;;;6279761;28;20071;-72
2021/08/23 02:01:46;;;;;;;12.10;5.90;;;;;;;;;;6270138;28;20190;-71
2021/08/23 02:04:49;;;;;;;8.45;5.32;;;;;;;;;;6277659;28;20178;-71
2021/08/23 02:07:50;;;;;;;6.93;5.22;;;;;;;;;;6273170;28;20469;-71
2021/08/23 02:10:52;;;;;;;9.18;5.38;;;;;;;;;;6277935;28;20044;-70
2021/08/23 02:13:54;;;;;;;8.77;5.57;;;;;;;;;;6285178;28;20041;-71
2021/08/23 02:16:57;;;;;;;8.80;5.97;;;;;;;;;;6283547;28;20101;-70
2021/08/23 02:20:00;;;;;;;6.70;5.63;;;;;;;;;;6289111;28;20500;-77
2021/08/23 02:23:02;;;;;;;8.70;5.80;;;;;;;;;;6288850;28;20052;-72
2021/08/23 02:26:04;;;;;;;6.97;5.75;;;;;;;;;;6287285;28;20117;-70
2021/08/23 02:29:05;;;;;;;8.93;5.72;;;;;;;;;;6291548;28;20118;-71
2021/08/23 02:32:08;;;;;;;8.20;6.00;;;;;;;;;;6286773;28;20064;-71
2021/08/23 02:35:11;;;;;;;10.40;6.50;;;;;;;;;;6291490;28;20512;-78
2021/08/23 02:38:12;;;;;;;9.00;6.38;;;;;;;;;;6290268;28;20174;-70
2021/08/23 02:41:14;;;;;;;8.20;6.28;;;;;;;;;;6291196;28;20052;-70
2021/08/23 02:44:15;;;;;;;9.57;6.18;;;;;;;;;;6287239;28;20100;-71
2021/08/23 02:47:17;;;;;;;7.43;5.72;;;;;;;;;;6280789;28;20404;-75
2021/08/23 02:50:20;;;;;;;7.25;6.45;;;;;;;;;;6286084;28;20060;-78
2021/08/23 02:53:22;;;;;;;7.22;5.90;;;;;;;;;;6285073;28;20125;-72
2021/08/23 02:56:23;;;;;;;9.55;6.10;;;;;;;;;;6281490;28;20450;-70
2021/08/23 02:59:25;;;;;;;9.45;6.18;;;;;;;;;;6290267;28;20070;-72
2021/08/23 03:02:27;;;;;;;10.88;6.68;;;;;;;;;;6269788;28;20186;-73
2021/08/23 03:05:29;;;;;;;10.77;6.80;;;;;;;;;;6272359;28;20106;-73
2021/08/23 03:08:31;;;;;;;13.77;7.28;;;;;;;;;;6278545;28;20124;-70
2021/08/23 03:11:33;;;;;;;10.15;7.22;;;;;;;;;;6275030;28;20050;-71
2021/08/23 03:14:34;;;;;;;9.23;6.60;;;;;;;;;;6285210;28;20044;-71
2021/08/23 03:17:36;;;;;;;8.70;6.95;;;;;;;;;;6279381;28;20527;-70
2021/08/23 03:20:39;;;;;;;12.93;6.90;;;;;;;;;;6278678;28;20048;-73
2021/08/23 03:23:41;;;;;;;12.77;7.13;;;;;;;;;;6286012;28;20080;-71
2021/08/23 03:26:42;;;;;;;16.15;7.35;;;;;;;;;;6277756;28;20113;-70
2021/08/23 03:29:45;;;;;;;9.57;7.20;;;;;;;;;;6281092;28;20068;-73
2021/08/23 03:32:47;;;;;;;11.32;6.63;;;;;;;;;;6273464;28;20045;-70
2021/08/23 03:35:50;;;;;;;9.38;7.05;;;;;;;;;;6273869;28;20122;-70
2021/08/23 03:38:51;;;;;;;10.57;7.57;;;;;;;;;;6283137;28;20496;-70
2021/08/23 03:41:53;;;;;;;11.13;7.28;;;;;;;;;;6274368;28;20060;-70
2021/08/23 03:44:54;;;;;;;9.38;6.95;;;;;;;;;;6285852;28;20060;-71
2021/08/23 03:47:56;;;;;;;11.45;7.43;;;;;;;;;;6272200;28;20178;-71
2021/08/23 03:50:59;;;;;;;12.50;7.72;;;;;;;;;;6275485;28;20741;-78
2021/08/23 03:54:00;;;;;;;8.02;6.28;;;;;;;;;;6277044;28;20111;-76
2021/08/23 03:57:02;;;;;;;8.38;6.93;;;;;;;;;;6279788;28;20186;-70
2021/08/23 04:00:06;;;;;;;9.93;6.85;;;;;;;;;;6286585;28;20129;-71
2021/08/23 04:03:07;;;;;;;8.68;6.68;;;;;;;;;;6269445;28;20556;-71
2021/08/23 04:06:12;;;;;;;9.70;7.50;;;;;;;;;;6277547;28;20179;-70
2021/08/23 04:09:14;;;;;;;15.98;7.38;;;;;;;;;;6280452;28;20094;-71
2021/08/23 04:12:15;;;;;;;10.68;7.40;;;;;;;;;;6280009;28;20170;-72
2021/08/23 04:15:17;;;;;;;8.43;7.47;;;;;;;;;;6275997;28;20064;-79
2021/08/23 04:18:19;;;;;;;9.27;6.70;;;;;;;;;;6272543;28;20522;-79
2021/08/23 04:21:22;;;;;;;10.73;7.55;;;;;;;;;;6276576;28;20186;-72
2021/08/23 04:24:23;;;;;;;9.93;7.55;;;;;;;;;;6279548;28;20125;-71
2021/08/23 04:27:25;;;;;;;9.07;6.90;;;;;;;;;;6278292;28;20093;-77
2021/08/23 04:30:26;;;;;;;8.52;6.90;;;;;;;;;;6275376;28;20393;-79
2021/08/23 04:33:28;;;;;;;11.18;7.70;;;;;;;;;;6277372;28;20041;-71
2021/08/23 04:36:31;;;;;;;11.68;6.90;;;;;;;;;;6275325;28;21753;-71
2021/08/23 04:39:33;;;;;;;11.57;7.53;;;;;;;;;;6282491;28;20051;-70
2021/08/23 04:42:35;;;;;;;10.20;7.82;;;;;;;;;;6275331;28;22591;-70
2021/08/23 04:45:36;;;;;;;10.77;7.60;;;;;;;;;;6275102;28;20147;-71
2021/08/23 04:48:38;;;;;;;10.32;8.27;;;;;;;;;;6275337;28;20149;-70
2021/08/23 04:51:41;;;;;;;11.98;8.02;;;;;;;;;;6277681;28;20041;-73
2021/08/23 04:54:42;;;;;;;13.82;8.23;;;;;;;;;;6275172;28;20136;-70
2021/08/23 04:57:44;;;;;;;11.02;7.78;;;;;;;;;;6277349;28;20040;-70
2021/08/23 05:00:46;;;;;;;13.35;7.88;;;;;;;;;;6273358;28;20049;-76
2021/08/23 05:03:47;;;;;;;11.93;7.55;;;;;;;;;;6277954;28;20127;-72
2021/08/23 05:06:50;;;;;;;9.98;7.60;;;;;;;;;;6271492;28;20128;-73
2021/08/23 05:09:52;;;;;;;11.10;8.57;;;;;;;;;;6275980;28;20074;-73
2021/08/23 05:12:55;;;;;;;13.65;8.25;;;;;;;;;;6276011;28;20078;-71
2021/08/23 05:15:57;;;;;;;18.17;8.52;;;;;;;;;;6272133;28;20036;-73
2021/08/23 05:18:59;;;;;;;12.18;8.40;;;;;;;;;;6275221;28;20056;-70
2021/08/23 05:22:02;;;;;;;11.18;7.93;;;;;;;;;;6280302;28;20090;-71
2021/08/23 05:25:04;;;;;;;12.75;7.43;;;;;;;;;;6281011;28;20389;-69
2021/08/23 05:28:05;;;;;;;13.73;8.15;;;;;;;;;;6280450;28;20119;-70
2021/08/23 05:31:07;;;;;;;13.13;8.23;;;;;;;;;;6275719;28;20047;-70
2021/08/23 05:34:08;;;;;;;11.27;7.22;;;;;;;;;;6283638;28;20052;-70
2021/08/23 05:37:12;;;;;;;9.27;6.97;;;;;;;;;;6282582;28;20040;-70
2021/08/23 05:40:14;;;;;;;11.00;7.85;;;;;;;;;;6278072;28;20045;-70
2021/08/23 05:43:16;;;;;;;14.50;8.07;;;;;;;;;;6268964;28;20052;-70
2021/08/23 05:46:20;;;;;;;9.93;7.53;;;;;;;;;;6269059;28;20048;-70
2021/08/23 05:49:22;;;;;;;11.90;8.05;;;;;;;;;;6262255;28;20202;-70
2021/08/23 05:52:25;;;;;;;10.85;8.02;;;;;;;;;;6281754;28;20131;-70
2021/08/23 05:55:27;;;;;;;13.50;7.85;;;;;;;;;;6269568;28;20148;-71
2021/08/23 05:58:28;;;;;;;10.30;8.20;;;;;;;;;;6279027;28;20139;-71
2021/08/23 06:01:30;;;;;;;13.10;8.68;;;;;;;;;;6266820;28;20506;-70
2021/08/23 06:04:31;;;;;;;13.40;9.73;;;;;;;;;;6275543;28;20093;-69
2021/08/23 06:07:34;;;;;;;15.43;9.82;;;;;;;;;;6268945;28;20094;-70
2021/08/23 06:10:36;;;;;;;11.70;9.50;;;;;;;;;;6273550;28;20527;-70
2021/08/23 06:13:37;;;;;;;14.77;9.45;;;;;;;;;;6271567;28;20380;-70
2021/08/23 06:16:39;;;;;;;13.35;9.05;;;;;;;;;;6268702;28;20055;-69
2021/08/23 06:19:41;;;;;;;12.40;9.82;;;;;;;;;;6275650;28;20081;-69
2021/08/23 06:22:46;;;;;;;14.15;9.48;;;;;;;;;;6265523;28;20041;-69
2021/08/23 06:25:48;;;;;;;13.68;10.02;;;;;;;;;;6266403;28;20480;-70
2021/08/23 06:28:50;;;;;;;12.88;8.85;;;;;;;;;;6275490;28;20090;-70
2021/08/23 06:31:51;;;;;;;10.57;8.25;;;;;;;;;;6262898;28;20049;-69
2021/08/23 06:34:53;;;;;;;9.30;7.60;;;;;;;;;;6276257;28;20057;-69
2021/08/23 06:37:56;;;;;;;10.57;7.40;;;;;;;;;;6273875;28;20202;-70
2021/08/23 06:40:58;;;;;;;9.73;8.27;;;;;;;;;;6266922;28;20115;-70
2021/08/23 06:43:59;;;;;;;11.93;8.23;;;;;;;;;;6274512;28;20048;-70
2021/08/23 06:47:01;;;;;;;14.00;7.50;;;;;;;;;;6259931;28;21366;-70
2021/08/23 06:50:03;;;;;;;9.32;7.53;;;;;;;;;;6271102;28;20900;-70
2021/08/23 06:53:06;;;;;;;12.15;9.10;;;;;;;;;;6268998;28;20051;-70
2021/08/23 06:56:07;;;;;;;11.48;7.07;;;;;;;;;;6272050;28;20064;-68
2021/08/23 06:59:09;;;;;;;11.50;8.07;;;;;;;;;;6274957;28;20082;-69
2021/08/23 07:02:11;;;;;;;17.92;9.73;;;;;;;;;;6265585;28;20044;-69
2021/08/23 07:05:12;;;;;;;10.50;8.25;;;;;;;;;;6270189;28;20471;-70
2021/08/23 07:08:16;;;;;;;11.68;7.25;;;;;;;;;;6273525;28;20657;-69
2021/08/23 07:11:18;;;;;;;;;;;;;;;;;;6276566;28;20175;-70
2021/08/23 07:14:20;;;;;;;10.43;8.15;;;;;;;;;;6286688;28;19928;-69
2021/08/23 07:17:22;;;;;;;10.85;7.60;;;;;;;;;;6272196;28;20174;-69
2021/08/23 07:20:24;;;;;;;9.88;7.70;;;;;;;;;;6276938;28;20050;-70
2021/08/23 07:23:27;;;;;;;7.82;6.43;;;;;;;;;;6278039;28;20053;-69
2021/08/23 07:26:28;;;;;;;11.10;7.28;;;;;;;;;;6273815;28;20136;-69
2021/08/23 07:29:30;;;;;;;11.30;6.80;;;;;;;;;;6277275;28;21298;-69
2021/08/23 07:32:32;;;;;;;10.80;7.60;;;;;;;;;;6262637;28;20041;-69
2021/08/23 07:35:33;;;;;;;9.77;7.38;;;;;;;;;;6269181;28;20041;-70
2021/08/23 07:38:36;;;;;;;10.13;6.63;;;;;;;;;;6283338;28;20179;-69
2021/08/23 07:41:38;;;;;;;11.45;7.13;;;;;;;;;;6277297;28;20575;-69
2021/08/23 07:44:40;;;;;;;9.90;7.18;;;;;;;;;;6286858;28;20496;-70
2021/08/23 07:47:44;;;;;;;10.40;6.95;;;;;;;;;;6279299;28;20045;-69
2021/08/23 07:50:45;;;;;;;12.40;7.20;;;;;;;;;;6264325;28;20060;-69
2021/08/23 07:53:48;;;;;;;13.13;7.00;;;;;;;;;;6276787;28;20041;-69
2021/08/23 07:56:50;;;;;;;9.63;7.43;;;;;;;;;;6266270;28;20064;-69
2021/08/23 07:59:51;;;;;;;9.68;6.75;;;;;;;;;;6278273;28;20202;-69
2021/08/23 08:02:53;;;;;;;9.48;7.07;;;;;;;;;;6269991;28;20131;-70
2021/08/23 08:05:55;;;;;;;9.27;6.57;;;;;;;;;;6273144;28;20048;-69
2021/08/23 08:08:59;;;;;;;11.43;7.32;;;;;;;;;;6276279;28;20079;-69
2021/08/23 08:12:01;;;;;;;10.07;7.93;;;;;;;;;;6270590;28;20044;-69
2021/08/23 08:15:04;;;;;;;9.05;6.80;;;;;;;;;;6274943;28;20056;-70
2021/08/23 08:18:06;;;;;;;11.38;7.03;;;;;;;;;;6264643;28;20044;-69
2021/08/23 08:21:07;;;;;;;9.48;7.15;;;;;;;;;;6270080;28;20142;-69
2021/08/23 08:24:10;;;;;;;9.80;7.25;;;;;;;;;;6278540;28;20114;-71
2021/08/23 08:27:12;;;;;;;;;;;;;;;;;;6269029;28;20188;-70
2021/08/23 08:30:16;;;;;;;10.85;7.47;;;;;;;;;;6275285;28;19927;-67
2021/08/23 08:33:18;;;;;;;15.20;8.52;;;;;;;;;;6268103;28;20879;-71
2021/08/23 08:36:21;;;;;;;13.57;10.05;;;;;;;;;;6269568;28;20041;-70
2021/08/23 08:39:24;;;;;;;14.02;10.07;;;;;;;;;;6279798;28;20605;-69
2021/08/23 08:42:26;;;;;;;10.70;9.13;;;;;;;;;;6277170;28;20060;-69
2021/08/23 08:45:30;;;;;;;13.82;9.55;;;;;;;;;;6272311;28;20061;-69
2021/08/23 08:48:32;;;;;;;15.70;11.80;;;;;;;;;;6274037;28;20509;-69
2021/08/23 08:51:36;;;;;;;15.30;11.75;;;;;;;;;;6267132;28;20423;-69
2021/08/23 08:54:39;;;;;;;13.13;11.77;;;;;;;;;;6269103;28;20446;-68
2021/08/23 08:57:41;;;;;;;14.38;11.95;;;;;;;;;;6266469;28;20053;-69
2021/08/23 09:00:43;;;;;;;14.15;11.25;;;;;;;;;;6270575;28;20040;-70
2021/08/23 09:03:46;;;;;;;12.48;9.90;;;;;;;;;;6266510;28;20044;-69
2021/08/23 09:06:49;;;;;;;14.90;11.63;;;;;;;;;;6270497;28;20507;-69
2021/08/23 09:09:52;;;;;;;18.08;13.05;;;;;;;;;;6273861;28;20183;-69
2021/08/23 09:13:00;;;;;;;;;;;;;;;;;;6272390;28;20065;-70
2021/08/23 09:16:02;;;;;;;14.50;10.90;;;;;;;;;;6268170;28;20062;-70
2021/08/23 09:19:04;;;;;;;16.17;11.05;;;;;;;;;;6278888;28;20064;-69
2021/08/23 09:22:08;;;;;;;13.30;10.50;;;;;;;;;;6268840;28;20057;-69
2021/08/23 09:25:12;;;;;;;10.27;9.23;;;;;;;;;;6282961;28;20049;-70
2021/08/23 09:28:15;;;;;;;11.35;8.80;;;;;;;;;;6278128;28;20561;-70
2021/08/23 09:31:16;;;;;;;24.80;8.85;;;;;;;;;;6263862;28;20098;-69
2021/08/23 09:34:18;;;;;;;8.52;7.63;;;;;;;;;;6275123;28;20041;-69
2021/08/23 09:37:21;;;;;;;8.50;7.68;;;;;;;;;;6266817;28;20063;-68
2021/08/23 09:40:27;;;;;;;8.90;6.88;;;;;;;;;;6271253;28;20098;-69
2021/08/23 09:43:31;;;;;;;7.82;5.50;;;;;;;;;;6274224;28;20045;-69
2021/08/23 09:46:33;;;;;;;4.90;3.28;;;;;;;;;;6268152;28;20058;-70
2021/08/23 09:49:36;;;;;;;7.22;3.92;;;;;;;;;;6273393;28;20048;-69
2021/08/23 09:52:39;;;;;;;5.28;4.18;;;;;;;;;;6268917;28;20040;-70
2021/08/23 09:55:45;;;;;;;5.47;4.25;;;;;;;;;;6273002;28;20037;-68
2021/08/23 09:58:47;;;;;;;9.02;5.47;;;;;;;;;;6275370;28;20506;-69
2021/08/23 10:01:49;;;;;;;;;;;;;;;;;;6263929;28;20041;-69
2021/08/23 10:04:51;;;;;;;10.80;6.03;;;;;;;;;;6276159;28;20032;-69
2021/08/23 10:07:53;;;;;;;9.88;5.90;;;;;;;;;;6273711;28;20097;-69
2021/08/23 10:10:56;;;;;;;7.20;5.07;;;;;;;;;;6272762;28;20050;-69
2021/08/23 10:13:59;;;;;;;8.02;5.57;;;;;;;;;;6280159;28;20076;-69
2021/08/23 10:17:00;;;;;;;;;;;;;;;;;;6269834;28;20525;-70
2021/08/23 10:20:02;;;;;;;6.88;5.60;;;;;;;;;;6277100;28;20074;-69
2021/08/23 10:23:04;;;;;;;6.80;5.95;;;;;;;;;;6274946;28;20135;-71
2021/08/23 10:26:07;;;;;;;13.85;7.68;;;;;;;;;;6275416;28;20562;-69
2021/08/23 10:29:10;;;;;;;10.25;6.93;;;;;;;;;;6281467;28;20565;-70
2021/08/23 10:32:12;;;;;;;13.25;6.40;;;;;;;;;;6272970;28;20093;-69
2021/08/23 10:35:18;;;;;;;8.93;6.23;;;;;;;;;;6284278;28;23193;-74
2021/08/23 10:38:21;;;;;;;9.27;6.70;;;;;;;;;;6291870;28;20135;-72
2021/08/23 10:41:27;;;;;;;8.55;6.05;;;;;;;;;;6287656;28;20048;-69
2021/08/23 10:44:31;;;;;;;7.78;5.57;;;;;;;;;;6297504;28;20179;-71
2021/08/23 10:47:32;;;;;;;11.40;6.90;;;;;;;;;;6286425;28;20131;-73
2021/08/23 10:50:36;;;;;;;8.77;6.60;;;;;;;;;;6286582;28;20085;-73
2021/08/23 10:53:39;;;;;;;11.52;7.63;;;;;;;;;;6293690;28;20045;-76
2021/08/23 10:56:42;;;;;;;;;;;;;;;;;;6282222;28;20044;-72
2021/08/23 10:59:45;;;;;;;10.80;9.23;;;;;;;;;;6284023;28;20376;-70
2021/08/23 11:02:47;;;;;;;11.50;8.80;;;;;;;;;;6270402;28;20086;-69
2021/08/23 11:05:51;;;;;;;9.13;8.13;;;;;;;;;;6270269;28;20066;-69
2021/08/23 11:08:53;;;;;;;16.80;9.05;;;;;;;;;;6284115;28;20052;-70
2021/08/23 11:12:06;;;;;;;14.55;7.10;;;;;;;;;;6275963;28;20055;-70
2021/08/23 11:15:14;;;;;;;8.60;6.00;;;;;;;;;;6282671;28;20044;-71
2021/08/23 11:18:17;;;;;;;7.40;5.97;;;;;;;;;;6271261;28;20527;-71
2021/08/23 11:21:18;;;;;;;;;;;;;;;;;;6275439;28;20087;-70
2021/08/23 11:24:20;;;;;;;9.50;7.85;;;;;;;;;;6281027;28;19974;-72
2021/08/23 11:27:23;;;;;;;9.65;7.95;;;;;;;;;;6274855;28;20172;-69
2021/08/23 11:30:29;;;;;;;10.60;6.88;;;;;;;;;;6282579;28;20091;-71
2021/08/23 11:33:32;;;;;;;7.22;6.03;;;;;;;;;;6281224;28;20107;-69
2021/08/23 11:36:35;;;;;;;8.65;5.85;;;;;;;;;;6279867;28;20053;-69
2021/08/23 11:39:37;;;;;;;9.80;5.32;;;;;;;;;;6291162;28;20049;-70
2021/08/23 11:42:40;;;;;;;5.93;3.95;;;;;;;;;;6283662;28;20612;-69
2021/08/23 11:45:43;;;;;;;5.78;3.33;;;;;;;;;;6281059;28;20053;-70
2021/08/23 11:48:45;;;;;;;4.45;3.20;;;;;;;;;;6282478;28;20041;-70
2021/08/23 11:51:46;;;;;;;4.03;3.17;;;;;;;;;;6273982;28;20197;-70
2021/08/23 11:54:50;;;;;;;4.65;3.20;;;;;;;;;;6288153;28;20157;-70
2021/08/23 11:58:00;;;;;;;4.72;3.15;;;;;;;;;;6278764;28;20048;-70
2021/08/23 12:01:03;;;;;;;5.75;2.60;;;;;;;;;;6276778;28;20083;-70
2021/08/23 12:04:05;;;;;;;2.88;2.38;;;;;;;;;;6283921;28;20564;-70
2021/08/23 12:07:07;;;;;;;3.20;2.33;;;;;;;;;;6285728;28;20492;-69
2021/08/23 12:10:09;;;;;;;3.58;2.40;;;;;;;;;;6281305;28;20076;-70
2021/08/23 12:13:14;;;;;;;4.97;2.50;;;;;;;;;;6278244;28;20074;-70
2021/08/23 12:16:17;;;;;;;4.10;2.38;;;;;;;;;;6278760;28;20041;-70
2021/08/23 12:19:19;;;;;;;3.20;2.78;;;;;;;;;;6286901;28;20080;-70
2021/08/23 12:22:20;;;;;;;3.35;2.30;;;;;;;;;;6277801;28;20052;-70
2021/08/23 12:25:25;;;;;;;3.38;2.30;;;;;;;;;;6280541;28;20040;-70
2021/08/23 12:28:28;;;;;;;3.83;2.03;;;;;;;;;;6269379;28;20467;-70
2021/08/23 12:31:31;;;;;;;3.15;2.72;;;;;;;;;;6262734;28;20114;-70
2021/08/23 12:34:34;;;;;;;5.25;2.10;;;;;;;;;;6266881;28;20093;-70
2021/08/23 12:37:35;;;;;;;3.08;2.05;;;;;;;;;;6265768;28;20045;-70
2021/08/23 12:40:37;;;;;;;6.13;2.10;;;;;;;;;;6267255;28;20531;-70
2021/08/23 12:43:41;;;;;;;2.25;1.80;;;;;;;;;;6274114;28;20045;-70
2021/08/23 12:46:43;;;;;;;5.75;1.88;;;;;;;;;;6266239;28;20178;-70
2021/08/23 12:49:44;;;;;;;2.42;2.05;;;;;;;;;;6267885;28;20163;-70
2021/08/23 12:52:46;;;;;;;3.47;1.88;;;;;;;;;;6272067;28;20430;-70
2021/08/23 12:55:48;;;;;;;3.13;1.87;;;;;;;;;;6267595;28;20548;-76
2021/08/23 12:58:52;;;;;;;3.20;1.87;;;;;;;;;;6276274;28;21080;-76
2021/08/23 13:01:54;;;;;;;4.13;1.83;;;;;;;;;;6263564;28;20620;-76
2021/08/23 13:04:55;;;;;;;3.17;2.08;;;;;;;;;;6276117;28;20572;-76
2021/08/23 13:07:57;;;;;;;3.08;1.80;;;;;;;;;;6269665;28;20045;-77
2021/08/23 13:10:59;;;;;;;4.25;1.80;;;;;;;;;;6272221;28;20101;-76
2021/08/23 13:14:02;;;;;;;;;;;;;;;;;;6288960;28;20049;-75
2021/08/23 13:17:04;;;;;;;3.50;1.70;;;;;;;;;;6272553;28;20360;-76
2021/08/23 13:20:06;;;;;;;;;;;;;;;;;;6277813;28;20135;-77
2021/08/23 13:23:11;;;;;;;1.70;1.60;;;;;;;;;;6276028;28;20433;-75
2021/08/23 13:26:13;;;;;;;3.47;1.75;;;;;;;;;;6283657;28;20125;-76
2021/08/23 13:29:16;;;;;;;3.22;1.63;;;;;;;;;;6290239;28;20396;-76
2021/08/23 13:32:18;;;;;;;3.15;1.65;;;;;;;;;;6273804;28;20040;-77
2021/08/23 13:35:19;;;;;;;1.92;1.33;;;;;;;;;;6277045;28;20049;-77
2021/08/23 13:38:21;;;;;;;1.80;1.50;;;;;;;;;;6280029;28;20040;-75
2021/08/23 13:41:22;;;;;;;2.33;1.67;;;;;;;;;;6272329;28;20999;-76
2021/08/23 13:44:25;;;;;;;2.17;1.80;;;;;;;;;;6279517;28;20477;-76
2021/08/23 13:47:27;;;;;;;2.50;1.52;;;;;;;;;;6268152;28;21689;-78
2021/08/23 13:50:29;;;;;;;3.03;1.70;;;;;;;;;;6271439;28;20045;-76
2021/08/23 13:53:30;;;;;;;3.40;1.77;;;;;;;;;;6277746;28;20120;-76
2021/08/23 13:56:32;;;;;;;3.03;1.63;;;;;;;;;;6270604;28;20036;-76
2021/08/23 13:59:35;;;;;;;3.50;1.90;;;;;;;;;;6277407;28;20139;-75
2021/08/23 14:02:36;;;;;;;4.90;1.70;;;;;;;;;;6268518;28;20134;-74
2021/08/23 14:05:38;;;;;;;3.27;1.63;;;;;;;;;;6269057;28;20062;-75
2021/08/23 14:08:39;;;;;;;4.43;1.70;;;;;;;;;;6279127;28;20040;-75
2021/08/23 14:11:41;;;;;;;1.63;1.50;;;;;;;;;;6269971;28;20447;-75
2021/08/23 14:14:44;;;;;;;1.90;1.40;;;;;;;;;;6284222;28;20100;-75
2021/08/23 14:17:46;;;;;;;5.32;1.83;;;;;;;;;;6269144;28;20500;-76
2021/08/23 14:20:47;;;;;;;1.80;1.60;;;;;;;;;;6274588;28;20069;-75
2021/08/23 14:23:51;;;;;;;2.53;1.63;;;;;;;;;;6288026;28;21973;-76
2021/08/23 14:26:53;;;;;;;4.97;1.77;;;;;;;;;;6281621;28;20048;-78
2021/08/23 14:29:55;;;;;;;3.20;2.20;;;;;;;;;;6286869;28;20089;-76
2021/08/23 14:32:57;;;;;;;3.10;1.90;;;;;;;;;;6278881;28;20182;-75
2021/08/23 14:35:59;;;;;;;3.38;2.00;;;;;;;;;;6279826;28;20055;-76
2021/08/23 14:39:00;;;;;;;4.77;1.60;;;;;;;;;;6285681;28;20044;-75
2021/08/23 14:42:02;;;;;;;3.90;1.90;;;;;;;;;;6277547;28;20048;-76
2021/08/23 14:45:06;;;;;;;4.07;1.95;;;;;;;;;;6278517;28;20608;-75
2021/08/23 14:48:07;;;;;;;5.80;1.90;;;;;;;;;;6268681;28;20049;-75
2021/08/23 14:51:09;;;;;;;3.47;2.10;;;;;;;;;;6270734;28;20102;-76
2021/08/23 14:54:10;;;;;;;3.78;1.70;;;;;;;;;;6283923;28;20401;-76
2021/08/23 14:57:12;;;;;;;3.72;2.10;;;;;;;;;;6279758;28;20106;-75
2021/08/23 15:00:15;;;;;;;4.57;1.85;;;;;;;;;;6284772;28;20036;-78
2021/08/23 15:03:17;;;;;;;4.55;2.00;;;;;;;;;;6273535;28;20052;-75
2021/08/23 15:06:19;;;;;;;3.28;2.20;;;;;;;;;;6268392;28;20072;-76
2021/08/23 15:09:20;;;;;;;5.20;2.40;;;;;;;;;;6275043;28;20128;-76
2021/08/23 15:12:22;;;;;;;3.45;2.20;;;;;;;;;;6267578;28;20920;-76
2021/08/23 15:15:25;;;;;;;2.88;2.10;;;;;;;;;;6272894;28;20090;-78
2021/08/23 15:18:26;;;;;;;3.90;1.98;;;;;;;;;;6270217;28;20108;-76
2021/08/23 15:21:28;;;;;;;2.40;2.10;;;;;;;;;;6266214;28;20060;-75
2021/08/23 15:24:31;;;;;;;3.95;2.05;;;;;;;;;;6277231;28;20044;-77
2021/08/23 15:27:33;;;;;;;3.97;2.42;;;;;;;;;;6274973;28;20457;-76
2021/08/23 15:30:36;;;;;;;5.47;2.35;;;;;;;;;;6271019;28;20258;-76
2021/08/23 15:33:37;;;;;;;6.22;3.08;;;;;;;;;;6275967;28;20109;-75
2021/08/23 15:36:39;;;;;;;4.13;2.70;;;;;;;;;;6276806;28;20143;-76
2021/08/23 15:39:42;;;;;;;6.88;2.97;;;;;;;;;;6277887;28;20048;-75
2021/08/23 15:42:43;;;;;;;5.10;2.92;;;;;;;;;;6273683;28;20041;-75
2021/08/23 15:45:47;;;;;;;3.28;2.40;;;;;;;;;;6257641;28;20781;-78
2021/08/23 15:48:50;;;;;;;7.00;2.70;;;;;;;;;;6273460;28;20068;-76
2021/08/23 15:51:51;;;;;;;5.90;2.70;;;;;;;;;;6272659;28;20045;-75
2021/08/23 15:54:53;;;;;;;6.90;2.83;;;;;;;;;;6278121;28;20126;-75
2021/08/23 15:57:55;;;;;;;6.40;2.90;;;;;;;;;;6273219;28;20445;-76
2021/08/23 16:00:57;;;;;;;3.43;2.60;;;;;;;;;;6278738;28;22003;-75
2021/08/23 16:03:59;;;;;;;5.18;2.72;;;;;;;;;;6276380;28;20076;-75
2021/08/23 16:07:01;;;;;;;5.47;3.05;;;;;;;;;;6279283;28;20159;-75
2021/08/23 16:10:03;;;;;;;4.00;2.70;;;;;;;;;;6286162;28;20492;-76
2021/08/23 16:13:05;;;;;;;11.52;3.00;;;;;;;;;;6282220;28;20111;-75
2021/08/23 16:16:08;;;;;;;4.70;2.63;;;;;;;;;;6275067;28;20136;-75
2021/08/23 16:19:10;;;;;;;9.95;3.47;;;;;;;;;;6286344;28;20036;-75
2021/08/23 16:22:11;;;;;;;6.13;2.90;;;;;;;;;;6280899;28;20126;-75
2021/08/23 16:25:13;;;;;;;6.43;2.80;;;;;;;;;;6282856;28;20037;-76
2021/08/23 16:28:14;;;;;;;3.22;2.60;;;;;;;;;;6285226;28;20044;-76
2021/08/23 16:31:17;;;;;;;5.43;3.00;;;;;;;;;;6275332;28;20068;-77
2021/08/23 16:34:19;;;;;;;;;;;;;;;;;;6282536;28;20144;-75
2021/08/23 16:37:21;;;;;;;7.28;3.17;;;;;;;;;;6287636;28;19997;-76
2021/08/23 16:40:22;;;;;;;3.88;2.88;;;;;;;;;;6285671;28;20116;-78
2021/08/23 16:43:24;;;;;;;6.78;3.10;;;;;;;;;;6287760;28;20128;-78
2021/08/23 16:46:27;;;;;;;8.82;2.88;;;;;;;;;;6284710;28;20137;-75
2021/08/23 16:49:28;;;;;;;;;;;;;;;;;;6283815;28;20080;-75
2021/08/23 16:52:32;;;;;;;5.00;2.92;;;;;;;;;;6280383;28;20259;-75
2021/08/23 16:55:33;;;;;;;6.95;3.08;;;;;;;;;;6280293;28;20040;-77
2021/08/23 16:58:35;;;;;;;5.47;3.13;;;;;;;;;;6287665;28;20183;-75
2021/08/23 17:01:38;;;;;;;7.43;3.25;;;;;;;;;;6281449;28;20106;-77
2021/08/23 17:04:39;;;;;;;5.97;3.20;;;;;;;;;;6290130;28;20052;-74
2021/08/23 17:07:42;;;;;;;6.00;3.63;;;;;;;;;;6281167;28;20459;-75
2021/08/23 17:10:44;;;;;;;;;;;;;;;;;;6284661;28;20044;-75
2021/08/23 17:13:46;;;;;;;7.63;3.17;;;;;;;;;;6300578;28;20351;-76
2021/08/23 17:16:49;;;;;;;3.83;3.10;;;;;;;;;;6287586;28;20102;-75
2021/08/23 17:19:50;;;;;;;;;;;;;;;;;;6286391;28;20139;-75
2021/08/23 17:22:52;;;;;;;10.15;2.97;;;;;;;;;;6286911;28;20294;-75
2021/08/23 17:25:53;;;;;;;6.07;2.80;;;;;;;;;;6291517;28;20066;-74
2021/08/23 17:28:55;;;;;;;8.20;2.85;;;;;;;;;;6294133;28;20108;-76
2021/08/23 17:31:58;;;;;;;5.03;3.08;;;;;;;;;;6281724;28;20047;-74
2021/08/23 17:35:00;;;;;;;8.57;3.05;;;;;;;;;;6285358;28;20105;-78
2021/08/23 17:38:01;;;;;;;12.38;4.07;;;;;;;;;;6278985;28;20037;-75
2021/08/23 17:41:03;;;;;;;7.68;3.85;;;;;;;;;;6277317;28;20580;-73
2021/08/23 17:44:05;;;;;;;6.82;4.00;;;;;;;;;;6287700;28;20037;-72
2021/08/23 17:47:08;;;;;;;8.88;3.95;;;;;;;;;;6271621;28;20093;-72
2021/08/23 17:50:10;;;;;;;;;;;;;;;;;;6279161;28;20037;-71
2021/08/23 17:53:11;;;;;;;7.50;4.28;;;;;;;;;;6276191;28;20061;-72
2021/08/23 17:56:13;;;;;;;6.68;3.92;;;;;;;;;;6275890;28;20129;-73
2021/08/23 17:59:15;;;;;;;9.05;4.03;;;;;;;;;;6282605;28;20076;-72
2021/08/23 18:02:17;;;;;;;6.88;3.88;;;;;;;;;;6272375;28;20202;-73
2021/08/23 18:05:19;;;;;;;8.38;4.13;;;;;;;;;;6275651;28;20068;-78
2021/08/23 18:08:21;;;;;;;7.15;3.97;;;;;;;;;;6283397;28;20075;-74
2021/08/23 18:11:22;;;;;;;9.82;3.88;;;;;;;;;;6271179;28;20045;-74
2021/08/23 18:14:24;;;;;;;5.47;3.58;;;;;;;;;;6275834;28;20123;-75